Latest Weather Observations for Ferny Creek

IDV60901

Issued at 11:01 am EDT Tuesday 20 November 2018 (issued every 10 minutes, with the page automatically refreshed every 10 minutes)

About weather observations | Map of Melbourne area stations | Latest observations for Melbourne area | Other Formats
Station Details ID: 086266 Name: FERNY CREEK Lat: -37.87 Lon: 145.35 Height: 512.9 m
Data from the previous 72 hours. | See also: Recent months at Ferny Creek
Date/Time
EDT
Temp
°C
App
Temp
°C
Dew
Point
°C
Rel
Hum
%
Delta-T
°C
Wind Press
QNH
hPa
Press
MSL
hPa
Rain since
9am
mm
Dir  Spd
km/h
Gust
km/h
Spd
kts
Gust
kts
20/11:00am 21.3 19.6 11.1 52 5.8 N 11 20 6 11 1008.6 1007.8 0.0
20/10:30am 21.6 19.8 10.7 50 6.1 N 11 24 6 13 1009.0 1008.2 0.0
20/10:00am 21.3 19.5 10.8 51 5.9 NNE 11 32 6 17 1009.0 1008.2 0.0
20/09:30am 21.2 18.8 10.1 49 6.2 NNE 13 37 7 20 1009.0 1008.2 0.0
20/09:00am 20.9 18.7 9.2 47 6.4 N 11 26 6 14 1009.4 1008.6 0.0
20/08:30am 21.1 18.7 8.7 45 6.7 N 11 24 6 13 1009.4 1008.6 0.0
20/08:00am 21.3 17.6 7.9 42 7.2 NNE 17 35 9 19 1009.0 1008.2 0.0
20/07:30am 21.4 18.3 7.3 40 7.4 NNE 13 28 7 15 1009.2 1008.4 0.0
20/07:00am 21.3 18.3 6.0 37 7.9 N 11 22 6 12 1009.3 1008.5 0.0
20/06:30am 21.7 18.3 6.0 36 8.1 N 13 30 7 16 1009.0 1008.2 0.0
20/06:00am 21.4 17.6 5.7 36 8.1 NNE 15 37 8 20 1008.7 1007.9 0.0
20/05:30am 21.4 17.5 5.3 35 8.2 NNE 15 44 8 24 1008.6 1007.8 0.0
20/05:00am 21.6 17.7 5.5 35 8.2 NNE 15 28 8 15 1008.6 1007.8 0.0
20/04:30am 21.3 17.5 5.6 36 8.0 NNE 15 28 8 15 1008.7 1007.9 0.0
20/04:00am 21.4 18.0 5.7 36 8.1 NNE 13 26 7 14 1009.0 1008.2 0.0
20/03:30am 21.5 17.6 5.4 35 8.2 NE 15 28 8 15 1009.3 1008.5 0.0
20/03:00am 21.3 17.4 5.2 35 8.2 NE 15 28 8 15 1009.5 1008.7 0.0
20/02:30am 21.3 17.7 5.2 35 8.2 NNE 13 24 7 13 1009.9 1009.2 0.0
20/02:00am 21.0 17.1 5.4 36 7.9 NE 15 26 8 14 1010.2 1009.5 0.0
20/01:30am 21.1 17.1 5.1 35 8.1 NE 15 26 8 14 1010.5 1009.8 0.0
20/01:00am 20.8 16.9 5.2 36 7.9 NE 15 26 8 14 1011.1 1010.3 0.0
20/12:30am 21.1 17.5 5.1 35 8.1 NE 13 26 7 14 1011.5 1010.8 0.0
20/12:00am 21.1 16.9 5.5 36 8.0 NE 17 24 9 13 1011.9 1011.2 0.0
 
Date/Time
EDT
Temp
°C
App
Temp
°C
Dew
Point
°C
Rel
Hum
%
Delta-T
°C
Wind Press
QNH
hPa
Press
MSL
hPa
Rain since
9am
mm
Dir  Spd
km/h
Gust
km/h
Spd
kts
Gust
kts
19/11:30pm 21.3 17.5 5.6 36 8.0 NE 15 24 8 13 1012.4 1011.7 0.0
19/11:00pm 21.0 18.0 5.8 37 7.8 NE 11 20 6 11 1012.9 1012.1 0.0
19/10:30pm 21.0 18.3 5.8 37 7.8 NE 9 15 5 8 1013.2 1012.5 0.0
19/10:00pm 21.6 18.5 5.5 35 8.2 NE 11 17 6 9 1013.3 1012.6 0.0
19/09:30pm 21.5 18.8 5.4 35 8.2 NE 9 19 5 10 1013.4 1012.7 0.0
19/09:00pm 21.9 19.1 5.3 34 8.5 NE 9 17 5 9 1013.4 1012.7 0.0
19/08:30pm 21.7 19.5 6.0 36 8.1 NE 7 13 4 7 1013.7 1013.0 0.0
19/08:00pm 21.6 19.4 6.3 37 7.9 NE 7 11 4 6 1013.7 1013.0 0.0
19/07:30pm 22.4 20.4 6.2 35 8.4 NE 6 11 3 6 1013.5 1012.8 0.0
19/07:00pm 22.9 21.0 6.6 35 8.6 NE 6 9 3 5 1013.4 1012.7 0.0
19/06:30pm 23.3 21.6 6.1 33 9.0 NNE 4 7 2 4 1013.2 1012.5 0.0
19/06:00pm 23.6 21.6 7.3 35 8.7 NNE 7 17 4 9 1013.3 1012.6 0.0
19/05:30pm 24.6 22.2 6.8 32 9.5 NE 9 22 5 12 1013.4 1012.7 0.0
19/05:00pm 24.7 22.7 6.9 32 9.5 NE 7 17 4 9 1013.6 1012.9 0.0
19/04:30pm 24.8 21.9 8.3 35 9.0 ENE 13 20 7 11 1013.7 1013.0 0.0
19/04:00pm 24.5 21.6 6.7 32 9.5 NE 11 19 6 10 1014.3 1013.6 0.0
19/03:30pm 24.2 22.1 6.5 32 9.4 NE 7 20 4 11 1014.6 1013.9 0.0
19/03:00pm 24.4 22.6 8.0 35 8.9 NNW 7 17 4 9 1015.1 1014.4 0.0
19/02:30pm 24.9 23.3 8.8 36 8.9 N 7 17 4 9 1015.3 1014.6 0.0
19/02:00pm 24.5 23.1 9.6 39 8.3 N 7 20 4 11 1015.6 1014.9 0.0
19/01:30pm 23.9 21.9 8.7 38 8.3 NNE 9 19 5 10 1016.0 1015.3 0.0
19/01:00pm 22.9 20.4 8.2 39 7.9 NNE 11 22 6 12 1016.3 1015.6 0.0
19/12:30pm 22.9 20.9 8.6 40 7.8 N 9 20 5 11 1017.0 1016.3 0.0
19/12:00pm 22.6 20.1 8.3 40 7.7 NNE 11 22 6 12 1017.3 1016.6 0.0
19/11:30am 22.3 20.2 8.1 40 7.6 N 9 33 5 18 1017.6 1016.9 0.0
19/11:00am 22.4 21.2 9.6 44 7.1 N 6 15 3 8 1018.0 1017.3 0.0
19/10:30am 21.2 19.2 8.8 45 6.7 NNE 9 17 5 9 1018.2 1017.6 0.0
19/10:00am 20.6 18.3 8.9 47 6.3 NNE 11 20 6 11 1018.4 1017.8 0.0
19/09:30am 20.0 17.9 8.4 47 6.2 N 9 19 5 10 1018.7 1018.1 0.0
19/09:00am 19.6 17.1 8.3 48 6.0 NNE 11 26 6 14 1018.7 1018.1 0.0
19/08:30am 18.8 15.9 6.6 45 6.3 NNE 11 26 6 14 1018.6 1018.0 0.0
19/08:00am 18.8 15.8 6.0 43 6.5 N 11 28 6 15 1018.5 1017.9 0.0
19/07:30am 18.4 15.8 5.9 44 6.3 NNE 9 24 5 13 1018.4 1017.8 0.0
19/07:00am 18.0 15.9 5.6 44 6.2 N 6 19 3 10 1018.2 1017.6 0.0
19/06:30am 17.7 14.9 5.0 43 6.3 N 9 19 5 10 1018.0 1017.3 0.0
19/06:00am 17.6 15.1 3.9 40 6.6 NNW 6 17 3 9 1017.8 1017.1 0.0
19/05:30am 17.3 15.1 3.2 39 6.7 N 4 13 2 7 1017.4 1016.7 0.0
19/05:00am 17.2 15.0 3.5 40 6.5 NNE 4 9 2 5 1017.2 1016.5 0.0
19/04:30am 17.1 15.1 4.4 43 6.2 NE 4 6 2 3 1017.2 1016.5 0.0
19/04:00am 17.4 15.5 4.7 43 6.2 NNE 4 9 2 5 1017.2 1016.5 0.0
19/03:30am 17.0 15.7 5.9 48 5.5 NNE 2 7 1 4 1017.3 1016.6 0.0
19/03:00am 16.3 14.8 7.0 54 4.7 NE 4 6 2 3 1017.6 1016.9 0.0
19/02:30am 16.1 14.2 7.6 57 4.4 NE 7 13 4 7 1017.8 1017.1 0.0
19/02:00am 15.8 14.8 7.3 57 4.3 E 2 4 1 2 1018.0 1017.3 0.0
19/01:30am 16.1 14.7 7.3 56 4.5 ENE 4 4 2 2 1018.2 1017.6 0.0
19/01:00am 16.0 14.7 7.5 57 4.3 E 4 6 2 3 1018.5 1017.9 0.0
19/12:30am 16.5 14.6 7.4 55 4.7 ENE 7 11 4 6 1018.7 1018.1 0.0
19/12:00am 16.7 14.8 7.6 55 4.7 ENE 7 11 4 6 1019.0 1018.3 0.0
 
Date/Time
EDT
Temp
°C
App
Temp
°C
Dew
Point
°C
Rel
Hum
%
Delta-T
°C
Wind Press
QNH
hPa
Press
MSL
hPa
Rain since
9am
mm
Dir  Spd
km/h
Gust
km/h
Spd
kts
Gust
kts
18/11:30pm 17.0 15.4 7.9 55 4.7 NE 6 9 3 5 1019.2 1018.5 0.0
18/11:00pm 16.7 14.8 7.6 55 4.7 ENE 7 15 4 8 1019.3 1018.6 0.0
18/10:30pm 16.5 14.7 8.0 57 4.4 ENE 7 15 4 8 1019.3 1018.6 0.0
18/10:00pm 15.8 14.0 8.1 60 4.0 ENE 7 11 4 6 1019.3 1018.6 0.0
18/09:30pm 15.9 13.7 7.7 58 4.2 ENE 9 15 5 8 1019.3 1018.6 0.0
18/09:00pm 16.2 13.9 7.4 56 4.5 E 9 17 5 9 1019.2 1018.5 0.0
18/08:30pm 16.8 13.9 6.6 51 5.2 E 11 15 6 8 1019.2 1018.5 0.0
18/08:00pm 17.4 14.5 6.3 48 5.6 E 11 20 6 11 1019.3 1018.6 0.0
18/07:30pm 18.1 14.7 5.7 44 6.2 E 13 22 7 12 1019.4 1018.7 0.0
18/07:00pm 19.1 15.3 5.9 42 6.7 E 15 24 8 13 1019.1 1018.4 0.0
18/06:30pm 19.8 17.0 6.9 43 6.7 ESE 11 20 6 11 1019.1 1018.4 0.0
18/06:00pm 20.3 17.4 6.6 41 7.1 ESE 11 22 6 12 1019.2 1018.5 0.0
18/05:30pm 20.9 18.1 6.8 40 7.4 SE 11 24 6 13 1019.3 1018.6 0.0
18/05:00pm 21.4 18.3 7.3 40 7.4 E 13 24 7 13 1019.4 1018.7 0.0
18/04:30pm 22.1 20.5 8.6 42 7.3 ESE 7 15 4 8 1019.4 1018.7 0.0
18/04:00pm 21.9 20.0 7.7 40 7.6 ENE 7 13 4 7 1019.7 1019.0 0.0
18/03:30pm 21.9 19.1 7.0 38 7.8 ENE 11 17 6 9 1020.1 1019.5 0.0
18/03:00pm 21.8 20.6 9.7 46 6.7 ESE 6 9 3 5 1020.5 1019.9 0.0
18/02:30pm 21.7 20.6 8.6 43 7.1 S 4 13 2 7 1021.0 1020.3 0.0
18/02:00pm 20.6 19.6 8.9 47 6.3 SE 4 7 2 4 1021.4 1020.7 0.0
18/01:30pm 21.6 20.2 9.5 46 6.7 SSE 7 11 4 6 1021.6 1021.0 0.0
18/01:00pm 20.4 19.3 8.4 46 6.4 NNW 4 9 2 5 1022.0 1021.4 0.0
18/12:30pm 20.4 19.0 8.7 47 6.3 NNW 6 9 3 5 1022.3 1021.7 0.0
18/12:00pm 19.3 17.8 8.6 50 5.7 N 6 13 3 7 1022.4 1021.8 0.0
18/11:30am 19.0 17.8 9.5 54 5.2 NNW 6 13 3 7 1022.7 1022.1 0.0
18/11:00am 17.9 16.7 7.9 52 5.2 NW 4 11 2 6 1023.1 1022.4 0.0
18/10:30am 17.9 17.0 9.3 57 4.6 NNW 4 7 2 4 1023.2 1022.5 0.0
18/10:00am 17.2 15.6 7.8 54 4.9 NW 6 9 3 5 1023.1 1022.4 0.0
18/09:30am 16.8 16.0 8.0 56 4.6 NNE 2 11 1 6 1023.1 1022.4 0.0
18/09:00am 15.3 13.9 7.1 58 4.1 NW 4 6 2 3 1022.9 1022.3 0.0
18/08:30am 13.6 12.1 6.7 63 3.4 NNW 4 6 2 3 1022.9 1022.3 0.0
18/08:00am 11.1 9.5 8.1 82 1.5 WNW 6 9 3 5 1022.7 1022.1 0.0
18/07:30am 10.0 7.7 7.6 85 1.2 WNW 9 13 5 7 1022.4 1021.8 0.0
18/07:00am 9.8 8.4 7.4 85 1.2 WNW 4 7 2 4 1022.0 1021.4 0.0
18/06:30am 8.3 6.9 7.4 94 0.4 WNW 4 9 2 5 1021.7 1021.1 0.0
18/06:00am 7.5 6.3 6.3 92 0.6 WNW 2 4 1 2 1021.4 1020.7 0.0
18/05:30am 7.8 6.8 5.8 87 0.9 CALM 0 0 0 0 1021.2 1020.5 0.0
18/05:00am 8.2 6.4 5.5 83 1.2 E 4 6 2 3 1021.2 1020.5 0.0
18/04:30am 9.2 7.1 5.8 79 1.6 E 6 9 3 5 1021.1 1020.4 0.0
18/04:00am 9.5 7.3 6.0 79 1.7 E 7 9 4 5 1021.1 1020.4 0.0
18/03:30am 9.8 7.7 6.7 81 1.5 E 7 11 4 6 1021.2 1020.5 0.0
18/03:00am 9.0 6.8 7.8 92 0.6 E 9 13 5 7 1021.4 1020.7 0.0
18/02:30am 9.0 6.8 7.8 92 0.6 E 9 20 5 11 1021.6 1021.0 0.0
18/02:00am 9.3 7.2 8.2 93 0.5 ESE 9 17 5 9 1022.1 1021.5 0.0
18/01:30am 9.2 6.6 7.8 91 0.7 E 11 19 6 10 1022.5 1021.9 0.0
18/01:00am 9.6 6.3 8.0 90 0.8 ESE 15 22 8 12 1022.8 1022.2 0.0
18/12:30am 9.6 6.3 7.9 89 0.8 E 15 22 8 12 1023.1 1022.4 0.0
18/12:00am 9.7 6.7 7.8 88 0.9 E 13 20 7 11 1023.4 1022.8 0.0
 
Date/Time
EDT
Temp
°C
App
Temp
°C
Dew
Point
°C
Rel
Hum
%
Delta-T
°C
Wind Press
QNH
hPa
Press
MSL
hPa
Rain since
9am
mm
Dir  Spd
km/h
Gust
km/h
Spd
kts
Gust
kts
17/11:30pm 9.6 6.6 7.5 87 1.0 ESE 13 22 7 12 1023.6 1023.0 0.0
17/11:00pm 9.2 6.0 7.0 86 1.1 ESE 13 26 7 14 1023.7 1023.1 0.0
17/10:30pm 9.1 6.6 6.5 84 1.2 SE 9 22 5 12 1023.9 1023.3 0.0
17/10:00pm 9.5 6.6 6.4 81 1.5 ESE 11 26 6 14 1024.3 1023.7 0.0
17/09:30pm 9.6 7.0 6.3 80 1.6 SE 9 20 5 11 1024.1 1023.5 0.0
17/09:00pm 9.7 7.7 6.4 80 1.6 SSE 6 15 3 8 1024.0 1023.4 0.0
17/08:30pm 10.1 7.9 6.4 78 1.8 SE 7 17 4 9 1023.9 1023.3 0.0
17/08:00pm 10.7 8.2 6.5 75 2.0 SSE 9 20 5 11 1023.7 1023.1 0.0
17/07:30pm 11.2 8.6 6.3 72 2.4 SSE 9 20 5 11 1023.5 1022.9 0.0
17/07:00pm 11.9 9.4 6.6 70 2.6 SSE 9 19 5 10 1023.3 1022.7 0.0
17/06:30pm 12.8 10.0 7.0 68 2.9 SE 11 24 6 13 1023.1 1022.4 0.0
17/06:00pm 13.3 10.5 7.1 66 3.1 SE 11 20 6 11 1022.8 1022.2 0.0
17/05:30pm 14.4 11.8 7.7 64 3.4 ESE 11 28 6 15 1022.8 1022.2 0.0
17/05:00pm 15.0 12.4 7.8 62 3.7 SE 11 20 6 11 1022.8 1022.2 0.0
17/04:30pm 15.6 13.8 7.9 60 4.0 ESE 7 19 4 10 1023.1 1022.4 0.0
17/04:00pm 15.8 14.1 8.3 61 3.9 ESE 7 17 4 9 1023.1 1022.4 0.0
17/03:30pm 15.7 13.0 7.2 57 4.3 SE 11 24 6 13 1023.2 1022.5 0.0
17/03:00pm 16.0 13.2 7.0 55 4.5 SE 11 20 6 11 1023.3 1022.7 0.0
17/02:30pm 15.7 12.4 4.7 48 5.3 SE 11 20 6 11 1023.5 1022.9 0.0
17/02:00pm 15.9 12.8 5.5 50 5.1 ESE 11 20 6 11 1023.7 1023.1 0.0
17/01:30pm 15.8 13.2 6.0 52 4.9 SSE 9 22 5 12 1023.8 1023.2 0.0
17/01:00pm 15.2 12.2 6.2 55 4.4 SE 11 19 6 10 1023.9 1023.3 0.0
17/12:30pm 14.5 11.7 5.0 53 4.6 SSE 9 22 5 12 1024.1 1023.5 0.0
17/12:00pm 14.0 11.6 5.1 55 4.3 SE 7 17 4 9 1024.2 1023.6 0.0
17/11:30am 14.0 11.6 5.4 56 4.2 SE 7 20 4 11 1024.2 1023.6 0.0

Latest Capital City Observations: Canberra | Sydney | Melbourne | Brisbane | Adelaide | Perth | Hobart | Darwin

Other Formats:

Comma delimited format used in spreadsheet applications
http://www.bom.gov.au/fwo/IDV60901/IDV60901.94872.axf

JavaScript Object Notation format (JSON) in row-major order
http://www.bom.gov.au/fwo/IDV60901/IDV60901.94872.json